createdAt,value
2023-02-27T00:00:15.295Z,80
2023-02-27T00:05:15.115Z,80
2023-02-27T00:10:15.117Z,80
2023-02-27T00:15:15.102Z,80
2023-02-27T00:20:15.127Z,80
2023-02-27T00:25:15.109Z,80
2023-02-27T00:30:15.111Z,79
2023-02-27T00:35:15.118Z,79
2023-02-27T00:40:15.115Z,79
2023-02-27T00:45:15.121Z,79
2023-02-27T00:50:15.103Z,80
2023-02-27T00:55:15.112Z,80
2023-02-27T01:00:15.113Z,80
2023-02-27T01:05:15.110Z,80
2023-02-27T01:10:15.107Z,80
2023-02-27T01:15:15.116Z,80
2023-02-27T01:20:15.108Z,80
2023-02-27T01:25:15.119Z,80
2023-02-27T01:30:15.109Z,80
2023-02-27T01:35:15.118Z,80
2023-02-27T01:40:15.108Z,80
2023-02-27T01:45:15.106Z,81
2023-02-27T01:50:15.108Z,81
2023-02-27T01:55:15.107Z,81
2023-02-27T02:00:15.108Z,81
2023-02-27T02:05:15.109Z,81
2023-02-27T02:10:15.115Z,81
2023-02-27T02:15:15.117Z,81
2023-02-27T02:20:15.107Z,82
2023-02-27T02:25:15.115Z,82
2023-02-27T02:30:15.100Z,82
2023-02-27T02:35:15.109Z,83
2023-02-27T02:40:15.105Z,83
2023-02-27T02:45:15.110Z,83
2023-02-27T02:50:15.115Z,82
2023-02-27T02:55:15.108Z,82
2023-02-27T03:00:15.099Z,82
2023-02-27T03:05:15.114Z,82
2023-02-27T03:10:15.111Z,81
2023-02-27T03:15:15.112Z,81
2023-02-27T03:20:15.113Z,81
2023-02-27T03:25:15.104Z,81
2023-02-27T03:30:15.101Z,81
2023-02-27T03:35:15.110Z,82
2023-02-27T03:40:15.104Z,82
2023-02-27T03:45:15.117Z,81
2023-02-27T03:50:15.101Z,81
2023-02-27T03:55:15.122Z,81
2023-02-27T04:00:15.097Z,81
2023-02-27T04:05:15.099Z,80
2023-02-27T04:10:15.096Z,81
2023-02-27T04:15:15.109Z,81
2023-02-27T04:20:15.105Z,81
2023-02-27T04:25:15.103Z,81
2023-02-27T04:30:15.124Z,81
2023-02-27T04:35:15.107Z,81
2023-02-27T04:40:15.112Z,81
2023-02-27T04:45:15.438Z,81
2023-02-27T04:50:15.098Z,82
2023-02-27T04:55:15.117Z,82
2023-02-27T05:00:15.119Z,82
2023-02-27T05:05:15.112Z,82
2023-02-27T05:10:15.109Z,82
2023-02-27T05:15:15.116Z,83
2023-02-27T05:20:15.104Z,83
2023-02-27T05:25:15.112Z,83
2023-02-27T05:30:15.106Z,84
2023-02-27T05:35:15.111Z,84
2023-02-27T05:40:15.128Z,84
2023-02-27T05:45:15.131Z,84
2023-02-27T05:50:15.101Z,84
2023-02-27T05:55:16.683Z,84
2023-02-27T06:00:15.107Z,84
2023-02-27T06:05:15.124Z,84
2023-02-27T06:10:15.103Z,84
2023-02-27T06:15:15.116Z,84
2023-02-27T06:20:15.128Z,84
2023-02-27T06:25:15.114Z,84
2023-02-27T06:30:15.110Z,83
2023-02-27T06:35:15.095Z,83
2023-02-27T06:40:15.100Z,83
2023-02-27T06:45:15.115Z,82
2023-02-27T06:50:15.118Z,82
2023-02-27T06:55:15.103Z,82
2023-02-27T07:00:15.088Z,81
2023-02-27T07:05:15.104Z,81
2023-02-27T07:10:15.099Z,81
2023-02-27T07:15:15.104Z,80
2023-02-27T07:20:15.108Z,80
2023-02-27T07:25:15.102Z,79
2023-02-27T07:30:15.096Z,79
2023-02-27T07:35:15.109Z,79
2023-02-27T07:40:15.110Z,78
2023-02-27T07:45:15.108Z,78
2023-02-27T07:50:15.115Z,78
2023-02-27T07:55:15.108Z,77
2023-02-27T08:00:15.103Z,77
2023-02-27T08:05:15.111Z,75
2023-02-27T08:10:15.111Z,75
2023-02-27T08:15:15.115Z,74
2023-02-27T08:20:15.116Z,74
2023-02-27T08:25:15.106Z,73
2023-02-27T08:30:15.113Z,73
2023-02-27T08:35:15.099Z,72
2023-02-27T08:40:15.099Z,71
2023-02-27T08:45:15.107Z,71
2023-02-27T08:50:15.103Z,70
2023-02-27T08:55:15.110Z,70
2023-02-27T09:00:15.142Z,69
2023-02-27T09:05:15.110Z,69
2023-02-27T09:10:15.105Z,69
2023-02-27T09:15:15.107Z,69
2023-02-27T09:20:15.101Z,70
2023-02-27T09:25:15.108Z,68
2023-02-27T09:30:15.107Z,69
2023-02-27T09:35:15.108Z,69
2023-02-27T09:40:15.091Z,68
2023-02-27T09:45:15.106Z,68
2023-02-27T09:50:15.120Z,70
2023-02-27T09:55:15.118Z,70
2023-02-27T10:00:15.102Z,70
2023-02-27T10:05:15.103Z,70
2023-02-27T10:10:15.099Z,70
2023-02-27T10:15:15.100Z,69
2023-02-27T10:20:15.101Z,68
2023-02-27T10:25:28.669Z,67
2023-02-27T10:30:20.391Z,66
2023-02-27T10:35:15.101Z,67
2023-02-27T10:40:15.103Z,66
2023-02-27T10:45:15.110Z,65
2023-02-27T10:50:15.094Z,64
2023-02-27T10:55:15.113Z,65
2023-02-27T11:00:15.098Z,63
2023-02-27T11:05:15.100Z,64
2023-02-27T11:10:15.112Z,64
2023-02-27T11:15:15.108Z,66
2023-02-27T11:20:15.093Z,65
2023-02-27T11:25:15.126Z,65
2023-02-27T11:30:16.315Z,66
2023-02-27T11:35:15.103Z,65
2023-02-27T11:40:15.232Z,65
2023-02-27T11:45:15.118Z,66
2023-02-27T11:50:15.145Z,63
2023-02-27T11:55:15.114Z,62
2023-02-27T12:00:15.107Z,62
2023-02-27T12:05:15.114Z,61
2023-02-27T12:10:15.112Z,62
2023-02-27T12:15:15.107Z,62
2023-02-27T12:20:15.105Z,62
2023-02-27T12:25:15.106Z,61
2023-02-27T12:30:15.108Z,59
2023-02-27T12:35:15.107Z,60
2023-02-27T12:40:15.096Z,59
2023-02-27T12:45:15.101Z,58
2023-02-27T12:50:15.104Z,59
2023-02-27T12:55:15.115Z,58
2023-02-27T13:00:15.113Z,58
2023-02-27T13:05:15.111Z,57
2023-02-27T13:10:15.103Z,57
2023-02-27T13:15:15.116Z,56
2023-02-27T13:20:15.101Z,54
2023-02-27T13:25:15.110Z,54
2023-02-27T13:30:15.112Z,54
2023-02-27T13:35:15.108Z,55
2023-02-27T13:40:15.095Z,54
2023-02-27T13:45:15.108Z,54
2023-02-27T13:50:15.096Z,53
2023-02-27T13:55:15.111Z,52
2023-02-27T14:00:15.103Z,53
2023-02-27T14:05:15.111Z,54
2023-02-27T14:10:15.112Z,53
2023-02-27T14:15:15.104Z,52
2023-02-27T14:20:15.095Z,51
2023-02-27T14:25:15.104Z,53
2023-02-27T14:30:15.109Z,53
2023-02-27T14:35:15.124Z,52
2023-02-27T14:40:21.273Z,54
2023-02-27T14:45:15.110Z,55
2023-02-27T14:50:15.098Z,55
2023-02-27T14:55:15.125Z,56
2023-02-27T15:00:15.109Z,59
2023-02-27T15:05:15.100Z,58
2023-02-27T15:10:15.108Z,59
2023-02-27T15:15:15.145Z,59
2023-02-27T15:20:16.123Z,57
2023-02-27T15:25:15.111Z,56
2023-02-27T15:30:15.106Z,54
2023-02-27T15:35:15.118Z,54
2023-02-27T15:40:15.102Z,56
2023-02-27T15:45:15.119Z,56
2023-02-27T15:50:15.106Z,58
2023-02-27T15:55:15.111Z,60
2023-02-27T16:00:15.095Z,60
2023-02-27T16:05:15.115Z,58
2023-02-27T16:10:15.106Z,58
2023-02-27T16:15:15.114Z,60
2023-02-27T16:20:15.099Z,59
2023-02-27T16:25:15.114Z,60
2023-02-27T16:30:15.102Z,60
2023-02-27T16:35:15.105Z,60
2023-02-27T16:40:15.201Z,61
2023-02-27T16:45:15.107Z,60
2023-02-27T16:50:15.111Z,60
2023-02-27T16:55:15.115Z,61
2023-02-27T17:00:15.101Z,62
2023-02-27T17:05:15.108Z,64
2023-02-27T17:10:15.132Z,66
2023-02-27T17:15:15.113Z,66
2023-02-27T17:20:15.349Z,66
2023-02-27T17:25:15.109Z,66
2023-02-27T17:30:15.104Z,65
2023-02-27T17:35:15.109Z,65
2023-02-27T17:40:15.104Z,66
2023-02-27T17:45:15.107Z,66
2023-02-27T17:50:15.109Z,67
2023-02-27T17:55:15.110Z,66
2023-02-27T18:00:15.183Z,66
2023-02-27T18:05:15.107Z,67
2023-02-27T18:10:15.108Z,66
2023-02-27T18:15:15.109Z,67
2023-02-27T18:20:15.102Z,67
2023-02-27T18:25:16.700Z,67
2023-02-27T18:30:15.100Z,68
2023-02-27T18:35:15.107Z,69
2023-02-27T18:40:15.108Z,70
2023-02-27T18:45:15.113Z,70
2023-02-27T18:50:15.101Z,70
2023-02-27T18:55:15.111Z,70
2023-02-27T19:00:15.103Z,69
2023-02-27T19:05:15.105Z,69
2023-02-27T19:10:15.124Z,69
2023-02-27T19:15:15.092Z,69
2023-02-27T19:20:15.106Z,70
2023-02-27T19:25:15.101Z,69
2023-02-27T19:30:15.105Z,69
2023-02-27T19:35:15.125Z,69
2023-02-27T19:40:15.104Z,69
2023-02-27T19:45:15.110Z,69
2023-02-27T19:50:15.112Z,69
2023-02-27T19:55:15.106Z,69
2023-02-27T20:00:15.103Z,70
2023-02-27T20:05:15.105Z,70
2023-02-27T20:10:15.104Z,71
2023-02-27T20:15:15.105Z,71
2023-02-27T20:20:15.104Z,71
2023-02-27T20:25:15.096Z,72
2023-02-27T20:30:15.102Z,72
2023-02-27T20:35:15.108Z,72
2023-02-27T20:40:15.111Z,72
2023-02-27T20:45:15.105Z,73
2023-02-27T20:50:15.116Z,73
2023-02-27T20:55:15.127Z,74
2023-02-27T21:00:15.096Z,75
2023-02-27T21:05:15.143Z,74
2023-02-27T21:10:15.110Z,74
2023-02-27T21:15:15.123Z,75
2023-02-27T21:20:15.104Z,74
2023-02-27T21:25:15.110Z,74
2023-02-27T21:30:15.105Z,74
2023-02-27T21:35:15.125Z,74
2023-02-27T21:40:15.100Z,74
2023-02-27T21:45:15.104Z,75
2023-02-27T21:50:15.172Z,75
2023-02-27T21:55:15.100Z,76
2023-02-27T22:00:15.099Z,76
2023-02-27T22:05:15.096Z,77
2023-02-27T22:10:15.095Z,77
2023-02-27T22:15:15.105Z,78
2023-02-27T22:20:15.098Z,78
2023-02-27T22:25:15.135Z,78
2023-02-27T22:30:15.130Z,79
2023-02-27T22:35:15.107Z,79
2023-02-27T22:40:15.110Z,79
2023-02-27T22:45:15.115Z,80
2023-02-27T22:50:15.119Z,80
2023-02-27T22:55:15.125Z,79
2023-02-27T23:00:15.112Z,81
2023-02-27T23:05:15.115Z,81
2023-02-27T23:10:15.118Z,81
2023-02-27T23:15:15.138Z,82
2023-02-27T23:20:15.112Z,82
2023-02-27T23:25:15.141Z,82
2023-02-27T23:30:15.120Z,82
2023-02-27T23:35:15.118Z,83
2023-02-27T23:40:15.111Z,83
2023-02-27T23:45:15.118Z,83
2023-02-27T23:50:15.105Z,83
2023-02-27T23:55:15.130Z,83
